Cape Dorset, Canada
Current Conditions -  °F | °C
As of 9:00 AM on Friday 19 Dec 2014 (Local Time) from CYTE Reporting Station
Scattered Clouds Scattered Clouds  
Wind Chill: -26°   Ceiling: Unl
Heat Index: -9°   Visibility: 15mi
Dew Point: -13°   Wind: 8mph
Humidity: 84%   Direction: 270°W
Pressure: 30.13"   Gusts: NA
Location:  64.23°N, 76.54°W
Report Text: CYTE 191400Z 27007KT 15SM SCT220 M23/M25 A3013 RMK CI3 SF TR SLP210
Loading
Personal Weather Stations






























Interactive Weather Map New forecast layout! Learn more

10-Day Weather Forecast

Advertisements
Track Severe Weather on mobile